EIME

Casement Air Base Airport

Baldonnel, Ireland
TAF EIME 172300Z 1800/1809 17009KT 9999 FEW015 SCT025 BECMG 1802/1805 17014KT -RA SCT012 BKN015 PROB40 TEMPO 1802/1805 -RASN BECMG 1805/1807 17022G35KT TEMPO 1805/1809 16023G40KT BKN012
Issued Valid From Valid To
Jan-17 @ 23:00 UTC
(48 minutes ago)
Jan-18 @ 00:00 UTC
(in 12 minutes)
Jan-18 @ 09:00 UTC
(in 9 hours)
Jan-18 @ 00:00 to Jan-18 @ 02:00
TAF EIME 172300Z 1800/1809 17009KT 9999 FEW015 SCT025
Wind Visibility Clouds
170° at 9 knots 10,000+ meters
  • Few at 1,500' AGL
  • Scattered at 2,500' AGL
Temporary  (Probability 40%) Jan-18 @ 02:00 to Jan-18 @ 05:00
PROB40 TEMPO 1802/1805 -RASN
Conditions
  • Light Rain
  • Light Snow
Becoming Jan-18 @ 02:00 to Jan-18 @ 05:00
BECMG 1802/1805 17014KT -RA SCT012 BKN015
Wind Visibility Clouds Conditions
170° at 14 knots 10,000+ meters
  • Scattered at 1,200' AGL
  • Broken at 1,500' AGL
  • Light Rain
Becoming Jan-18 @ 05:00 to Jan-18 @ 09:00
BECMG 1805/1807 17022G35KT
Wind Visibility Clouds Conditions
170° at 22 knots
 Gusting to 35 knots
10,000+ meters
  • Scattered at 1,200' AGL
  • Broken at 1,500' AGL
  • Light Rain
Temporary Jan-18 @ 05:00 to Jan-18 @ 09:00
TEMPO 1805/1809 16023G40KT BKN012
Wind Clouds
160° at 23 knots
 Gusting to 40 knots
  • Broken at 1,200' AGL
TAF EIME 172300Z 1800/1809 17009KT 9999 FEW015 SCT025 BECMG 1802/1805 17014KT -RA SCT012 BKN015 PROB40 TEMPO 1802/1805 -RASN BECMG 1805/1807 17022G35KT TEMPO 1805/1809 16023G40KT BKN012
Issued Jan-17 @ 23:00 UTC
(48 minutes ago)
Valid From Jan-18 @ 00:00 UTC
(in 12 minutes)
Valid To Jan-18 @ 09:00 UTC
(in 9 hours)
Jan-18 @ 00:00 - Jan-18 @ 02:00
Wind Visibility
170° at 9 knots 10,000+ meters
Clouds
  • Few at 1,500' AGL
  • Scattered at 2,500' AGL
Probability 40% Temporary Jan-18 @ 02:00 - Jan-18 @ 05:00
Conditions
  • Light Rain
  • Light Snow
Becoming Jan-18 @ 02:00 - Jan-18 @ 05:00
Wind Visibility
170° at 14 knots 10,000+ meters
Clouds
  • Scattered at 1,200' AGL
  • Broken at 1,500' AGL
Conditions
  • Light Rain
Becoming Jan-18 @ 05:00 - Jan-18 @ 09:00
Wind Visibility
170° at 22 knots
 Gusting to 35 knots
10,000+ meters
Clouds
  • Scattered at 1,200' AGL
  • Broken at 1,500' AGL
Conditions
  • Light Rain
Temporary Jan-18 @ 05:00 - Jan-18 @ 09:00
Wind
160° at 23 knots
 Gusting to 40 knots
Clouds
  • Broken at 1,200' AGL